sensor_id;sensor_type;location;lat;lon;timestamp;P1;durP1;ratioP1;P2;durP2;ratioP2
79330;SDS011;68797;49.782;19.054;2023-09-18T00:02:16;7.13;;;4.90;;
79330;SDS011;68797;49.782;19.054;2023-09-18T00:04:52;6.53;;;4.68;;
79330;SDS011;68797;49.782;19.054;2023-09-18T00:07:19;9.07;;;5.05;;
79330;SDS011;68797;49.782;19.054;2023-09-18T00:09:46;6.13;;;4.80;;
79330;SDS011;68797;49.782;19.054;2023-09-18T00:12:17;8.15;;;5.85;;
79330;SDS011;68797;49.782;19.054;2023-09-18T00:14:49;6.85;;;5.15;;
79330;SDS011;68797;49.782;19.054;2023-09-18T00:17:20;7.10;;;5.40;;
79330;SDS011;68797;49.782;19.054;2023-09-18T00:19:52;8.48;;;5.45;;
79330;SDS011;68797;49.782;19.054;2023-09-18T00:22:28;6.70;;;5.32;;
79330;SDS011;68797;49.782;19.054;2023-09-18T00:25:02;6.55;;;5.43;;
79330;SDS011;68797;49.782;19.054;2023-09-18T00:27:33;7.57;;;4.97;;
79330;SDS011;68797;49.782;19.054;2023-09-18T00:30:07;7.00;;;5.40;;
79330;SDS011;68797;49.782;19.054;2023-09-18T00:32:40;7.70;;;5.60;;
79330;SDS011;68797;49.782;19.054;2023-09-18T00:35:10;8.35;;;5.82;;
79330;SDS011;68797;49.782;19.054;2023-09-18T00:37:39;10.52;;;6.60;;
79330;SDS011;68797;49.782;19.054;2023-09-18T00:40:11;9.75;;;5.82;;
79330;SDS011;68797;49.782;19.054;2023-09-18T00:42:39;6.72;;;5.32;;
79330;SDS011;68797;49.782;19.054;2023-09-18T00:45:09;9.10;;;6.47;;
79330;SDS011;68797;49.782;19.054;2023-09-18T00:47:41;7.72;;;5.35;;
79330;SDS011;68797;49.782;19.054;2023-09-18T00:50:08;8.43;;;6.70;;
79330;SDS011;68797;49.782;19.054;2023-09-18T00:52:43;9.25;;;6.38;;
79330;SDS011;68797;49.782;19.054;2023-09-18T00:55:13;12.68;;;6.50;;
79330;SDS011;68797;49.782;19.054;2023-09-18T00:57:53;10.07;;;6.25;;
79330;SDS011;68797;49.782;19.054;2023-09-18T01:00:28;9.48;;;7.00;;
79330;SDS011;68797;49.782;19.054;2023-09-18T01:03:05;9.77;;;6.50;;
79330;SDS011;68797;49.782;19.054;2023-09-18T01:05:41;8.82;;;6.07;;
79330;SDS011;68797;49.782;19.054;2023-09-18T01:08:12;11.98;;;6.38;;
79330;SDS011;68797;49.782;19.054;2023-09-18T01:10:47;9.13;;;6.20;;
79330;SDS011;68797;49.782;19.054;2023-09-18T01:13:33;9.07;;;6.28;;
79330;SDS011;68797;49.782;19.054;2023-09-18T01:16:13;9.15;;;6.80;;
79330;SDS011;68797;49.782;19.054;2023-09-18T01:18:53;10.30;;;7.55;;
79330;SDS011;68797;49.782;19.054;2023-09-18T01:21:33;11.85;;;7.53;;
79330;SDS011;68797;49.782;19.054;2023-09-18T01:24:16;9.75;;;7.13;;
79330;SDS011;68797;49.782;19.054;2023-09-18T01:26:52;10.40;;;7.20;;
79330;SDS011;68797;49.782;19.054;2023-09-18T01:29:31;11.38;;;7.22;;
79330;SDS011;68797;49.782;19.054;2023-09-18T01:32:07;11.23;;;7.75;;
79330;SDS011;68797;49.782;19.054;2023-09-18T01:34:37;10.90;;;8.43;;
79330;SDS011;68797;49.782;19.054;2023-09-18T01:37:11;10.15;;;8.20;;
79330;SDS011;68797;49.782;19.054;2023-09-18T01:39:58;12.10;;;8.43;;
79330;SDS011;68797;49.782;19.054;2023-09-18T01:42:35;11.82;;;7.95;;
79330;SDS011;68797;49.782;19.054;2023-09-18T01:45:05;12.73;;;8.02;;
79330;SDS011;68797;49.782;19.054;2023-09-18T01:47:46;13.15;;;8.38;;
79330;SDS011;68797;49.782;19.054;2023-09-18T01:50:19;16.17;;;9.27;;
79330;SDS011;68797;49.782;19.054;2023-09-18T01:52:52;11.75;;;8.60;;
79330;SDS011;68797;49.782;19.054;2023-09-18T01:55:49;14.85;;;9.30;;
79330;SDS011;68797;49.782;19.054;2023-09-18T01:58:37;12.77;;;8.60;;
79330;SDS011;68797;49.782;19.054;2023-09-18T02:01:27;12.00;;;8.75;;
79330;SDS011;68797;49.782;19.054;2023-09-18T02:04:06;14.55;;;8.82;;
79330;SDS011;68797;49.782;19.054;2023-09-18T02:06:47;14.75;;;9.23;;
79330;SDS011;68797;49.782;19.054;2023-09-18T02:09:25;12.10;;;8.93;;
79330;SDS011;68797;49.782;19.054;2023-09-18T02:12:05;11.80;;;9.48;;
79330;SDS011;68797;49.782;19.054;2023-09-18T02:14:44;14.27;;;9.23;;
79330;SDS011;68797;49.782;19.054;2023-09-18T02:17:30;13.30;;;9.75;;
79330;SDS011;68797;49.782;19.054;2023-09-18T02:20:29;14.13;;;10.00;;
79330;SDS011;68797;49.782;19.054;2023-09-18T02:23:16;13.20;;;9.15;;
79330;SDS011;68797;49.782;19.054;2023-09-18T02:25:58;13.40;;;9.27;;
79330;SDS011;68797;49.782;19.054;2023-09-18T02:28:54;14.57;;;10.02;;
79330;SDS011;68797;49.782;19.054;2023-09-18T02:31:38;13.02;;;9.15;;
79330;SDS011;68797;49.782;19.054;2023-09-18T02:34:10;14.82;;;10.25;;
79330;SDS011;68797;49.782;19.054;2023-09-18T02:36:44;12.77;;;9.85;;
79330;SDS011;68797;49.782;19.054;2023-09-18T02:39:21;14.20;;;10.05;;
79330;SDS011;68797;49.782;19.054;2023-09-18T02:41:55;16.50;;;9.68;;
79330;SDS011;68797;49.782;19.054;2023-09-18T02:44:22;12.02;;;9.40;;
79330;SDS011;68797;49.782;19.054;2023-09-18T02:46:51;13.60;;;10.05;;
79330;SDS011;68797;49.782;19.054;2023-09-18T02:49:21;15.15;;;9.77;;
79330;SDS011;68797;49.782;19.054;2023-09-18T02:51:52;20.05;;;10.38;;
79330;SDS011;68797;49.782;19.054;2023-09-18T02:54:27;15.25;;;11.23;;
79330;SDS011;68797;49.782;19.054;2023-09-18T02:56:58;14.70;;;10.27;;
79330;SDS011;68797;49.782;19.054;2023-09-18T02:59:27;13.65;;;9.95;;
79330;SDS011;68797;49.782;19.054;2023-09-18T03:02:02;15.48;;;10.45;;
79330;SDS011;68797;49.782;19.054;2023-09-18T03:04:33;13.95;;;9.98;;
79330;SDS011;68797;49.782;19.054;2023-09-18T03:07:15;12.93;;;10.45;;
79330;SDS011;68797;49.782;19.054;2023-09-18T03:09:46;13.68;;;10.30;;
79330;SDS011;68797;49.782;19.054;2023-09-18T03:12:19;15.38;;;11.38;;
79330;SDS011;68797;49.782;19.054;2023-09-18T03:14:46;15.48;;;11.02;;
79330;SDS011;68797;49.782;19.054;2023-09-18T03:17:35;15.68;;;9.82;;
79330;SDS011;68797;49.782;19.054;2023-09-18T03:20:14;15.15;;;10.65;;
79330;SDS011;68797;49.782;19.054;2023-09-18T03:22:55;14.55;;;10.52;;
79330;SDS011;68797;49.782;19.054;2023-09-18T03:25:32;15.82;;;11.00;;
79330;SDS011;68797;49.782;19.054;2023-09-18T03:28:08;15.75;;;11.32;;
79330;SDS011;68797;49.782;19.054;2023-09-18T03:30:40;15.63;;;11.52;;
79330;SDS011;68797;49.782;19.054;2023-09-18T03:33:11;16.08;;;11.73;;
79330;SDS011;68797;49.782;19.054;2023-09-18T03:38:16;16.10;;;11.63;;
79330;SDS011;68797;49.782;19.054;2023-09-18T03:40:43;16.77;;;10.88;;
79330;SDS011;68797;49.782;19.054;2023-09-18T03:43:16;17.45;;;11.63;;
79330;SDS011;68797;49.782;19.054;2023-09-18T03:45:44;15.75;;;11.27;;
79330;SDS011;68797;49.782;19.054;2023-09-18T03:48:15;16.08;;;11.07;;
79330;SDS011;68797;49.782;19.054;2023-09-18T03:50:43;15.90;;;10.93;;
79330;SDS011;68797;49.782;19.054;2023-09-18T03:53:15;16.02;;;11.05;;
79330;SDS011;68797;49.782;19.054;2023-09-18T03:55:50;15.60;;;11.32;;
79330;SDS011;68797;49.782;19.054;2023-09-18T03:58:34;16.83;;;11.73;;
79330;SDS011;68797;49.782;19.054;2023-09-18T04:01:09;17.85;;;11.43;;
79330;SDS011;68797;49.782;19.054;2023-09-18T04:03:39;19.27;;;12.13;;
79330;SDS011;68797;49.782;19.054;2023-09-18T04:06:07;17.65;;;11.30;;
79330;SDS011;68797;49.782;19.054;2023-09-18T04:08:36;18.33;;;11.95;;
79330;SDS011;68797;49.782;19.054;2023-09-18T04:11:07;15.48;;;11.13;;
79330;SDS011;68797;49.782;19.054;2023-09-18T04:16:54;15.57;;;11.30;;
79330;SDS011;68797;49.782;19.054;2023-09-18T04:35:37;17.67;;;10.57;;
79330;SDS011;68797;49.782;19.054;2023-09-18T04:38:30;17.80;;;11.73;;
79330;SDS011;68797;49.782;19.054;2023-09-18T04:41:25;15.40;;;11.10;;
79330;SDS011;68797;49.782;19.054;2023-09-18T04:43:54;18.75;;;12.18;;
79330;SDS011;68797;49.782;19.054;2023-09-18T04:46:21;16.13;;;10.75;;
79330;SDS011;68797;49.782;19.054;2023-09-18T04:48:48;15.75;;;11.60;;
79330;SDS011;68797;49.782;19.054;2023-09-18T04:51:17;17.50;;;12.00;;
79330;SDS011;68797;49.782;19.054;2023-09-18T04:53:50;18.92;;;11.75;;
79330;SDS011;68797;49.782;19.054;2023-09-18T04:56:25;18.90;;;12.52;;
79330;SDS011;68797;49.782;19.054;2023-09-18T04:59:02;18.92;;;12.98;;
79330;SDS011;68797;49.782;19.054;2023-09-18T05:01:29;20.77;;;13.63;;
79330;SDS011;68797;49.782;19.054;2023-09-18T05:03:56;17.17;;;11.85;;
79330;SDS011;68797;49.782;19.054;2023-09-18T05:06:22;17.35;;;13.00;;
79330;SDS011;68797;49.782;19.054;2023-09-18T05:08:49;14.40;;;11.23;;
79330;SDS011;68797;49.782;19.054;2023-09-18T05:11:15;18.30;;;11.82;;
79330;SDS011;68797;49.782;19.054;2023-09-18T05:13:46;15.40;;;11.80;;
79330;SDS011;68797;49.782;19.054;2023-09-18T05:16:16;15.68;;;11.05;;
79330;SDS011;68797;49.782;19.054;2023-09-18T05:18:48;16.60;;;11.68;;
79330;SDS011;68797;49.782;19.054;2023-09-18T05:21:15;19.67;;;12.32;;
79330;SDS011;68797;49.782;19.054;2023-09-18T05:23:55;19.80;;;12.13;;
79330;SDS011;68797;49.782;19.054;2023-09-18T05:26:22;22.00;;;12.82;;
79330;SDS011;68797;49.782;19.054;2023-09-18T05:28:50;16.42;;;11.90;;
79330;SDS011;68797;49.782;19.054;2023-09-18T05:31:16;17.73;;;12.52;;
79330;SDS011;68797;49.782;19.054;2023-09-18T05:33:44;14.90;;;11.15;;
79330;SDS011;68797;49.782;19.054;2023-09-18T05:36:19;18.83;;;12.07;;
79330;SDS011;68797;49.782;19.054;2023-09-18T05:57:25;14.98;;;10.68;;
79330;SDS011;68797;49.782;19.054;2023-09-18T05:59:53;17.33;;;11.05;;
79330;SDS011;68797;49.782;19.054;2023-09-18T06:02:23;16.85;;;11.55;;
79330;SDS011;68797;49.782;19.054;2023-09-18T06:04:56;17.52;;;11.82;;
79330;SDS011;68797;49.782;19.054;2023-09-18T06:07:26;21.35;;;12.95;;
79330;SDS011;68797;49.782;19.054;2023-09-18T06:09:56;18.77;;;12.75;;
79330;SDS011;68797;49.782;19.054;2023-09-18T06:12:23;17.83;;;12.90;;
79330;SDS011;68797;49.782;19.054;2023-09-18T06:14:50;17.70;;;12.63;;
79330;SDS011;68797;49.782;19.054;2023-09-18T06:17:17;17.08;;;11.93;;
79330;SDS011;68797;49.782;19.054;2023-09-18T06:19:44;19.25;;;12.30;;
79330;SDS011;68797;49.782;19.054;2023-09-18T06:22:12;17.08;;;12.50;;
79330;SDS011;68797;49.782;19.054;2023-09-18T06:24:39;14.88;;;11.43;;
79330;SDS011;68797;49.782;19.054;2023-09-18T06:27:06;18.73;;;12.55;;
79330;SDS011;68797;49.782;19.054;2023-09-18T06:29:33;15.18;;;11.63;;
79330;SDS011;68797;49.782;19.054;2023-09-18T06:32:04;15.80;;;11.70;;
79330;SDS011;68797;49.782;19.054;2023-09-18T06:34:36;17.17;;;11.45;;
79330;SDS011;68797;49.782;19.054;2023-09-18T06:37:10;15.98;;;11.40;;
79330;SDS011;68797;49.782;19.054;2023-09-18T06:39:54;17.80;;;11.88;;
79330;SDS011;68797;49.782;19.054;2023-09-18T06:42:42;15.10;;;11.32;;
79330;SDS011;68797;49.782;19.054;2023-09-18T06:45:23;20.40;;;12.60;;
79330;SDS011;68797;49.782;19.054;2023-09-18T06:48:07;17.13;;;11.80;;
79330;SDS011;68797;49.782;19.054;2023-09-18T06:50:39;18.08;;;12.02;;
79330;SDS011;68797;49.782;19.054;2023-09-18T06:53:06;14.77;;;10.77;;
79330;SDS011;68797;49.782;19.054;2023-09-18T06:55:37;16.67;;;12.10;;
79330;SDS011;68797;49.782;19.054;2023-09-18T07:01:54;16.02;;;11.82;;
79330;SDS011;68797;49.782;19.054;2023-09-18T07:04:23;15.20;;;11.75;;
79330;SDS011;68797;49.782;19.054;2023-09-18T07:10:38;17.77;;;12.13;;
79330;SDS011;68797;49.782;19.054;2023-09-18T07:13:12;16.00;;;11.88;;
79330;SDS011;68797;49.782;19.054;2023-09-18T07:15:46;17.35;;;12.15;;
79330;SDS011;68797;49.782;19.054;2023-09-18T07:18:18;20.10;;;12.02;;
79330;SDS011;68797;49.782;19.054;2023-09-18T07:20:52;15.85;;;11.30;;
79330;SDS011;68797;49.782;19.054;2023-09-18T07:36:43;17.63;;;11.82;;
79330;SDS011;68797;49.782;19.054;2023-09-18T07:40:42;17.17;;;12.35;;
79330;SDS011;68797;49.782;19.054;2023-09-18T07:43:26;15.35;;;11.73;;
79330;SDS011;68797;49.782;19.054;2023-09-18T07:46:10;14.50;;;11.98;;
79330;SDS011;68797;49.782;19.054;2023-09-18T07:49:06;15.90;;;13.02;;
79330;SDS011;68797;49.782;19.054;2023-09-18T07:51:51;16.95;;;12.27;;
79330;SDS011;68797;49.782;19.054;2023-09-18T07:54:35;17.00;;;12.75;;
79330;SDS011;68797;49.782;19.054;2023-09-18T07:57:19;14.57;;;12.45;;
79330;SDS011;68797;49.782;19.054;2023-09-18T08:00:01;16.65;;;12.95;;
79330;SDS011;68797;49.782;19.054;2023-09-18T08:24:49;14.98;;;11.73;;
79330;SDS011;68797;49.782;19.054;2023-09-18T08:44:02;14.70;;;11.85;;
79330;SDS011;68797;49.782;19.054;2023-09-18T08:46:47;16.30;;;13.02;;
79330;SDS011;68797;49.782;19.054;2023-09-18T08:49:52;16.15;;;11.93;;
79330;SDS011;68797;49.782;19.054;2023-09-18T08:52:50;13.60;;;11.57;;
79330;SDS011;68797;49.782;19.054;2023-09-18T08:55:51;17.70;;;12.95;;
79330;SDS011;68797;49.782;19.054;2023-09-18T08:58:47;14.05;;;11.13;;
79330;SDS011;68797;49.782;19.054;2023-09-18T09:02:12;18.52;;;11.95;;
79330;SDS011;68797;49.782;19.054;2023-09-18T09:05:38;13.00;;;10.75;;
79330;SDS011;68797;49.782;19.054;2023-09-18T09:08:33;19.77;;;13.00;;
79330;SDS011;68797;49.782;19.054;2023-09-18T09:15:05;14.00;;;10.68;;
79330;SDS011;68797;49.782;19.054;2023-09-18T09:18:25;13.45;;;10.82;;
79330;SDS011;68797;49.782;19.054;2023-09-18T09:21:22;13.13;;;10.65;;
79330;SDS011;68797;49.782;19.054;2023-09-18T09:24:56;12.90;;;11.32;;
79330;SDS011;68797;49.782;19.054;2023-09-18T09:28:32;13.10;;;10.10;;
79330;SDS011;68797;49.782;19.054;2023-09-18T09:31:28;13.85;;;10.88;;
79330;SDS011;68797;49.782;19.054;2023-09-18T09:34:02;11.35;;;10.15;;
79330;SDS011;68797;49.782;19.054;2023-09-18T09:36:38;12.95;;;9.82;;
79330;SDS011;68797;49.782;19.054;2023-09-18T09:39:32;11.23;;;9.45;;
79330;SDS011;68797;49.782;19.054;2023-09-18T09:42:26;12.30;;;9.52;;
79330;SDS011;68797;49.782;19.054;2023-09-18T09:45:13;10.50;;;9.30;;
79330;SDS011;68797;49.782;19.054;2023-09-18T09:48:22;11.48;;;9.25;;
79330;SDS011;68797;49.782;19.054;2023-09-18T09:51:34;11.68;;;9.55;;
79330;SDS011;68797;49.782;19.054;2023-09-18T09:55:17;11.35;;;8.88;;
79330;SDS011;68797;49.782;19.054;2023-09-18T09:58:26;13.95;;;10.60;;
79330;SDS011;68797;49.782;19.054;2023-09-18T10:01:11;11.75;;;9.65;;
79330;SDS011;68797;49.782;19.054;2023-09-18T10:03:50;13.02;;;9.95;;
79330;SDS011;68797;49.782;19.054;2023-09-18T10:07:09;11.43;;;9.10;;
79330;SDS011;68797;49.782;19.054;2023-09-18T10:09:45;12.35;;;9.48;;
79330;SDS011;68797;49.782;19.054;2023-09-18T10:15:54;12.88;;;9.93;;
79330;SDS011;68797;49.782;19.054;2023-09-18T10:19:11;11.23;;;8.57;;
79330;SDS011;68797;49.782;19.054;2023-09-18T10:25:11;9.68;;;8.40;;
79330;SDS011;68797;49.782;19.054;2023-09-18T10:27:46;11.95;;;8.68;;
79330;SDS011;68797;49.782;19.054;2023-09-18T10:30:34;9.68;;;8.40;;
79330;SDS011;68797;49.782;19.054;2023-09-18T10:33:22;10.23;;;8.75;;
79330;SDS011;68797;49.782;19.054;2023-09-18T10:35:55;9.73;;;8.32;;
79330;SDS011;68797;49.782;19.054;2023-09-18T10:38:31;10.63;;;8.57;;
79330;SDS011;68797;49.782;19.054;2023-09-18T10:40:59;10.85;;;8.57;;
79330;SDS011;68797;49.782;19.054;2023-09-18T10:43:26;10.85;;;8.52;;
79330;SDS011;68797;49.782;19.054;2023-09-18T10:55:13;10.55;;;8.48;;
79330;SDS011;68797;49.782;19.054;2023-09-18T11:07:23;23.92;;;9.43;;
79330;SDS011;68797;49.782;19.054;2023-09-18T11:09:54;12.10;;;8.95;;
79330;SDS011;68797;49.782;19.054;2023-09-18T11:13:02;13.90;;;10.25;;
79330;SDS011;68797;49.782;19.054;2023-09-18T11:15:48;11.20;;;9.23;;
79330;SDS011;68797;49.782;19.054;2023-09-18T11:18:38;11.75;;;9.07;;
79330;SDS011;68797;49.782;19.054;2023-09-18T11:21:14;13.05;;;9.85;;
79330;SDS011;68797;49.782;19.054;2023-09-18T11:33:02;11.52;;;9.55;;
79330;SDS011;68797;49.782;19.054;2023-09-18T11:42:42;10.38;;;7.57;;
79330;SDS011;68797;49.782;19.054;2023-09-18T11:56:27;10.77;;;7.47;;
79330;SDS011;68797;49.782;19.054;2023-09-18T12:47:36;11.85;;;8.65;;
79330;SDS011;68797;49.782;19.054;2023-09-18T13:07:05;9.52;;;7.22;;
79330;SDS011;68797;49.782;19.054;2023-09-18T13:10:09;10.45;;;8.15;;
79330;SDS011;68797;49.782;19.054;2023-09-18T13:12:55;11.30;;;7.38;;
79330;SDS011;68797;49.782;19.054;2023-09-18T13:15:26;11.05;;;7.25;;
79330;SDS011;68797;49.782;19.054;2023-09-18T13:21:21;12.35;;;7.55;;
79330;SDS011;68797;49.782;19.054;2023-09-18T13:24:06;10.35;;;6.55;;
79330;SDS011;68797;49.782;19.054;2023-09-18T13:26:56;10.70;;;7.35;;
79330;SDS011;68797;49.782;19.054;2023-09-18T13:29:32;9.38;;;7.47;;
79330;SDS011;68797;49.782;19.054;2023-09-18T13:32:01;10.07;;;8.05;;
79330;SDS011;68797;49.782;19.054;2023-09-18T13:34:35;9.77;;;7.22;;
79330;SDS011;68797;49.782;19.054;2023-09-18T13:37:11;12.50;;;7.68;;
79330;SDS011;68797;49.782;19.054;2023-09-18T13:39:53;9.95;;;7.38;;
79330;SDS011;68797;49.782;19.054;2023-09-18T13:42:24;7.63;;;6.40;;
79330;SDS011;68797;49.782;19.054;2023-09-18T13:45:05;10.23;;;7.00;;
79330;SDS011;68797;49.782;19.054;2023-09-18T13:47:50;10.07;;;6.35;;
79330;SDS011;68797;49.782;19.054;2023-09-18T13:50:22;8.77;;;7.85;;
79330;SDS011;68797;49.782;19.054;2023-09-18T13:52:55;11.40;;;7.18;;
79330;SDS011;68797;49.782;19.054;2023-09-18T13:55:38;8.82;;;6.05;;
79330;SDS011;68797;49.782;19.054;2023-09-18T13:58:14;9.10;;;6.03;;
79330;SDS011;68797;49.782;19.054;2023-09-18T14:00:57;7.70;;;6.40;;
79330;SDS011;68797;49.782;19.054;2023-09-18T14:03:35;6.93;;;6.18;;
79330;SDS011;68797;49.782;19.054;2023-09-18T14:06:20;8.40;;;6.72;;
79330;SDS011;68797;49.782;19.054;2023-09-18T14:12:50;10.02;;;6.93;;
79330;SDS011;68797;49.782;19.054;2023-09-18T14:15:51;19.60;;;7.15;;
79330;SDS011;68797;49.782;19.054;2023-09-18T14:18:55;11.60;;;6.93;;
79330;SDS011;68797;49.782;19.054;2023-09-18T14:25:05;9.95;;;6.93;;
79330;SDS011;68797;49.782;19.054;2023-09-18T14:31:44;10.77;;;6.55;;
79330;SDS011;68797;49.782;19.054;2023-09-18T14:43:05;9.05;;;6.68;;
79330;SDS011;68797;49.782;19.054;2023-09-18T15:22:03;8.98;;;7.35;;
79330;SDS011;68797;49.782;19.054;2023-09-18T15:24:32;9.23;;;7.65;;
79330;SDS011;68797;49.782;19.054;2023-09-18T15:27:07;10.20;;;7.63;;
79330;SDS011;68797;49.782;19.054;2023-09-18T15:29:39;8.48;;;7.53;;
79330;SDS011;68797;49.782;19.054;2023-09-18T15:32:08;8.90;;;7.57;;
79330;SDS011;68797;49.782;19.054;2023-09-18T15:34:36;8.50;;;7.57;;
79330;SDS011;68797;49.782;19.054;2023-09-18T15:37:03;11.43;;;8.85;;
79330;SDS011;68797;49.782;19.054;2023-09-18T15:39:31;10.55;;;8.10;;
79330;SDS011;68797;49.782;19.054;2023-09-18T15:42:00;8.20;;;6.88;;
79330;SDS011;68797;49.782;19.054;2023-09-18T15:44:27;11.07;;;7.95;;
79330;SDS011;68797;49.782;19.054;2023-09-18T15:46:54;11.07;;;9.02;;
79330;SDS011;68797;49.782;19.054;2023-09-18T15:49:24;10.48;;;8.38;;
79330;SDS011;68797;49.782;19.054;2023-09-18T15:51:51;10.75;;;8.02;;
79330;SDS011;68797;49.782;19.054;2023-09-18T15:54:18;11.00;;;7.75;;
79330;SDS011;68797;49.782;19.054;2023-09-18T15:56:45;10.73;;;8.63;;
79330;SDS011;68797;49.782;19.054;2023-09-18T15:59:12;16.15;;;10.77;;
79330;SDS011;68797;49.782;19.054;2023-09-18T16:04:07;12.85;;;8.82;;
79330;SDS011;68797;49.782;19.054;2023-09-18T16:06:34;11.65;;;9.07;;
79330;SDS011;68797;49.782;19.054;2023-09-18T16:09:07;14.65;;;10.27;;
79330;SDS011;68797;49.782;19.054;2023-09-18T16:11:36;12.13;;;9.23;;
79330;SDS011;68797;49.782;19.054;2023-09-18T16:14:03;12.88;;;8.95;;
79330;SDS011;68797;49.782;19.054;2023-09-18T16:16:35;17.73;;;10.43;;
79330;SDS011;68797;49.782;19.054;2023-09-18T16:21:30;17.95;;;10.50;;
79330;SDS011;68797;49.782;19.054;2023-09-18T16:23:58;12.02;;;9.18;;
79330;SDS011;68797;49.782;19.054;2023-09-18T16:26:25;10.93;;;8.20;;
79330;SDS011;68797;49.782;19.054;2023-09-18T16:28:52;10.68;;;9.23;;
79330;SDS011;68797;49.782;19.054;2023-09-18T16:33:45;13.63;;;9.25;;
79330;SDS011;68797;49.782;19.054;2023-09-18T16:36:14;16.13;;;9.68;;
79330;SDS011;68797;49.782;19.054;2023-09-18T16:38:41;11.73;;;9.05;;
79330;SDS011;68797;49.782;19.054;2023-09-18T16:41:10;12.75;;;10.15;;
79330;SDS011;68797;49.782;19.054;2023-09-18T16:43:37;15.70;;;10.32;;
79330;SDS011;68797;49.782;19.054;2023-09-18T16:46:05;15.30;;;10.27;;
79330;SDS011;68797;49.782;19.054;2023-09-18T16:48:32;13.38;;;9.23;;
79330;SDS011;68797;49.782;19.054;2023-09-18T16:51:00;13.55;;;9.93;;
79330;SDS011;68797;49.782;19.054;2023-09-18T17:22:36;13.93;;;9.38;;
79330;SDS011;68797;49.782;19.054;2023-09-18T17:25:06;12.85;;;10.02;;
79330;SDS011;68797;49.782;19.054;2023-09-18T17:27:33;15.13;;;9.82;;
79330;SDS011;68797;49.782;19.054;2023-09-18T17:30:01;15.00;;;9.52;;
79330;SDS011;68797;49.782;19.054;2023-09-18T17:32:29;13.55;;;10.18;;
79330;SDS011;68797;49.782;19.054;2023-09-18T17:34:56;12.95;;;9.10;;
79330;SDS011;68797;49.782;19.054;2023-09-18T17:37:25;16.27;;;10.55;;
79330;SDS011;68797;49.782;19.054;2023-09-18T17:39:53;15.40;;;9.77;;
79330;SDS011;68797;49.782;19.054;2023-09-18T17:42:23;13.02;;;9.50;;
79330;SDS011;68797;49.782;19.054;2023-09-18T17:44:50;14.23;;;10.13;;
79330;SDS011;68797;49.782;19.054;2023-09-18T17:47:23;16.60;;;10.48;;
79330;SDS011;68797;49.782;19.054;2023-09-18T17:49:50;13.85;;;9.90;;
79330;SDS011;68797;49.782;19.054;2023-09-18T17:52:17;17.08;;;9.63;;
79330;SDS011;68797;49.782;19.054;2023-09-18T17:54:45;15.48;;;10.13;;
79330;SDS011;68797;49.782;19.054;2023-09-18T17:57:16;13.60;;;10.23;;
79330;SDS011;68797;49.782;19.054;2023-09-18T17:59:53;15.52;;;9.85;;
79330;SDS011;68797;49.782;19.054;2023-09-18T18:02:38;16.33;;;10.35;;
79330;SDS011;68797;49.782;19.054;2023-09-18T18:08:28;16.70;;;10.65;;
79330;SDS011;68797;49.782;19.054;2023-09-18T18:10:56;17.98;;;10.05;;
79330;SDS011;68797;49.782;19.054;2023-09-18T18:13:25;14.00;;;9.57;;
79330;SDS011;68797;49.782;19.054;2023-09-18T18:15:58;13.43;;;9.13;;
79330;SDS011;68797;49.782;19.054;2023-09-18T18:18:42;13.98;;;9.23;;
79330;SDS011;68797;49.782;19.054;2023-09-18T18:21:31;13.90;;;9.73;;
79330;SDS011;68797;49.782;19.054;2023-09-18T18:24:06;13.95;;;10.20;;
79330;SDS011;68797;49.782;19.054;2023-09-18T18:26:45;14.85;;;9.15;;
79330;SDS011;68797;49.782;19.054;2023-09-18T18:29:18;12.82;;;9.85;;
79330;SDS011;68797;49.782;19.054;2023-09-18T18:31:49;13.02;;;9.30;;
79330;SDS011;68797;49.782;19.054;2023-09-18T18:34:16;14.20;;;9.88;;
79330;SDS011;68797;49.782;19.054;2023-09-18T18:36:44;17.40;;;9.45;;
79330;SDS011;68797;49.782;19.054;2023-09-18T18:39:14;18.92;;;10.05;;
79330;SDS011;68797;49.782;19.054;2023-09-18T18:41:43;12.65;;;8.90;;
79330;SDS011;68797;49.782;19.054;2023-09-18T18:44:11;14.02;;;10.20;;
79330;SDS011;68797;49.782;19.054;2023-09-18T18:46:38;14.55;;;9.75;;
79330;SDS011;68797;49.782;19.054;2023-09-18T18:49:06;14.80;;;10.35;;
79330;SDS011;68797;49.782;19.054;2023-09-18T18:51:32;13.32;;;10.10;;
79330;SDS011;68797;49.782;19.054;2023-09-18T18:54:01;12.50;;;9.38;;
79330;SDS011;68797;49.782;19.054;2023-09-18T18:56:31;15.07;;;9.90;;
79330;SDS011;68797;49.782;19.054;2023-09-18T18:59:00;14.25;;;9.57;;
79330;SDS011;68797;49.782;19.054;2023-09-18T19:01:30;11.82;;;9.10;;
79330;SDS011;68797;49.782;19.054;2023-09-18T19:03:56;15.45;;;9.90;;
79330;SDS011;68797;49.782;19.054;2023-09-18T19:06:23;15.63;;;10.70;;
79330;SDS011;68797;49.782;19.054;2023-09-18T19:11:17;18.27;;;9.57;;
79330;SDS011;68797;49.782;19.054;2023-09-18T19:13:47;10.90;;;8.88;;
79330;SDS011;68797;49.782;19.054;2023-09-18T19:16:17;13.93;;;10.10;;
79330;SDS011;68797;49.782;19.054;2023-09-18T19:18:49;17.42;;;9.77;;
79330;SDS011;68797;49.782;19.054;2023-09-18T19:21:42;12.57;;;9.13;;
79330;SDS011;68797;49.782;19.054;2023-09-18T19:24:09;11.45;;;8.27;;
79330;SDS011;68797;49.782;19.054;2023-09-18T19:26:40;13.95;;;9.43;;
79330;SDS011;68797;49.782;19.054;2023-09-18T19:29:20;14.85;;;9.40;;
79330;SDS011;68797;49.782;19.054;2023-09-18T19:31:47;12.60;;;8.95;;
79330;SDS011;68797;49.782;19.054;2023-09-18T19:34:18;15.80;;;10.15;;
79330;SDS011;68797;49.782;19.054;2023-09-18T19:36:46;13.88;;;9.27;;
79330;SDS011;68797;49.782;19.054;2023-09-18T19:39:21;14.93;;;9.80;;
79330;SDS011;68797;49.782;19.054;2023-09-18T19:41:48;12.43;;;9.35;;
79330;SDS011;68797;49.782;19.054;2023-09-18T19:44:16;12.98;;;8.60;;
79330;SDS011;68797;49.782;19.054;2023-09-18T19:46:44;13.45;;;9.77;;
79330;SDS011;68797;49.782;19.054;2023-09-18T19:49:11;14.10;;;8.70;;
79330;SDS011;68797;49.782;19.054;2023-09-18T19:51:40;15.18;;;8.50;;
79330;SDS011;68797;49.782;19.054;2023-09-18T19:54:11;13.25;;;8.65;;
79330;SDS011;68797;49.782;19.054;2023-09-18T19:56:44;13.68;;;8.63;;
79330;SDS011;68797;49.782;19.054;2023-09-18T20:01:42;12.48;;;8.48;;
79330;SDS011;68797;49.782;19.054;2023-09-18T20:04:13;13.55;;;8.55;;
79330;SDS011;68797;49.782;19.054;2023-09-18T20:06:41;14.05;;;8.85;;
79330;SDS011;68797;49.782;19.054;2023-09-18T20:09:10;13.98;;;8.88;;
79330;SDS011;68797;49.782;19.054;2023-09-18T20:11:37;13.15;;;9.10;;
79330;SDS011;68797;49.782;19.054;2023-09-18T20:14:07;15.07;;;8.57;;
79330;SDS011;68797;49.782;19.054;2023-09-18T20:16:37;13.52;;;9.07;;
79330;SDS011;68797;49.782;19.054;2023-09-18T20:19:05;13.80;;;8.52;;
79330;SDS011;68797;49.782;19.054;2023-09-18T20:21:37;13.70;;;8.88;;
79330;SDS011;68797;49.782;19.054;2023-09-18T20:24:07;11.10;;;8.65;;
79330;SDS011;68797;49.782;19.054;2023-09-18T20:26:34;13.68;;;9.50;;
79330;SDS011;68797;49.782;19.054;2023-09-18T20:29:02;13.43;;;9.40;;
79330;SDS011;68797;49.782;19.054;2023-09-18T20:31:29;12.27;;;8.77;;
79330;SDS011;68797;49.782;19.054;2023-09-18T20:33:56;14.52;;;8.50;;
79330;SDS011;68797;49.782;19.054;2023-09-18T20:36:23;14.32;;;9.75;;
79330;SDS011;68797;49.782;19.054;2023-09-18T20:38:51;12.25;;;9.30;;